Time;durP1;ratioP1;P1;durP2;ratioP2;P2;SDS_P1;SDS_P2;PMS_P1;PMS_P2;Temp;Humidity;BMP_temperature;BMP_pressure;BME280_temperature;BME280_humidity;BME280_pressure;Samples;Min_cycle;Max_cycle;Signal;HPM_P1;HPM_P2
2023/10/24 00:01:24;;;;;;;5.37;3.60;;;;;;;;;;6118124;23;20413;-91
2023/10/24 00:03:50;;;;;;;5.10;4.50;;;;;;;;;;6121517;23;20384;-90
2023/10/24 00:06:16;;;;;;;4.47;3.90;;;;;;;;;;6172874;23;20371;-91
2023/10/24 00:08:42;;;;;;;4.57;3.70;;;;;;;;;;6170127;23;20417;-90
2023/10/24 00:11:08;;;;;;;7.00;4.50;;;;;;;;;;6171191;23;20427;-90
2023/10/24 00:13:34;;;;;;;4.90;3.97;;;;;;;;;;6171029;23;20519;-90
2023/10/24 00:16:00;;;;;;;4.37;3.43;;;;;;;;;;6178453;23;20393;-91
2023/10/24 00:18:26;;;;;;;3.97;3.67;;;;;;;;;;6169073;23;20399;-91
2023/10/24 00:20:52;;;;;;;3.93;3.50;;;;;;;;;;6168584;23;20447;-90
2023/10/24 00:23:18;;;;;;;10.50;4.83;;;;;;;;;;6170253;23;20380;-91
2023/10/24 00:25:44;;;;;;;4.60;3.97;;;;;;;;;;6170173;23;20376;-91
2023/10/24 00:28:10;;;;;;;4.13;3.73;;;;;;;;;;6178529;23;20388;-95
2023/10/24 00:30:37;;;;;;;5.17;4.67;;;;;;;;;;6147167;23;20468;-94
2023/10/24 00:33:04;;;;;;;6.63;4.37;;;;;;;;;;6124141;23;20397;-94
2023/10/24 00:35:31;;;;;;;5.90;4.60;;;;;;;;;;6121892;23;20393;-93
2023/10/24 00:37:57;;;;;;;4.57;4.00;;;;;;;;;;6120095;23;20417;-95
2023/10/24 00:40:26;;;;;;;4.00;3.40;;;;;;;;;;6122044;23;20400;-94
2023/10/24 00:42:52;;;;;;;4.37;3.57;;;;;;;;;;6147668;23;20385;-94
2023/10/24 00:46:07;;;;;;;;;;;;;;;;;;;;;
2023/10/24 00:48:37;;;;;;;4.23;3.90;;;;;;;;;;6227798;22;20478;-94
2023/10/24 00:51:03;;;;;;;8.47;4.47;;;;;;;;;;6179783;23;20431;-94
2023/10/24 00:53:29;;;;;;;4.77;4.27;;;;;;;;;;6182127;23;20418;-95
2023/10/24 00:55:55;;;;;;;5.17;3.87;;;;;;;;;;6181814;23;20395;-94
2023/10/24 00:58:23;;;;;;;5.03;3.80;;;;;;;;;;6208914;23;20382;-94
2023/10/24 01:00:49;;;;;;;6.10;3.57;;;;;;;;;;6206290;23;20379;-93
2023/10/24 01:03:16;;;;;;;4.30;3.90;;;;;;;;;;6185109;23;20372;-94
2023/10/24 01:05:42;;;;;;;6.07;3.33;;;;;;;;;;6181978;23;20375;-92
2023/10/24 01:08:08;;;;;;;7.20;4.73;;;;;;;;;;6184606;23;20379;-93
2023/10/24 01:10:35;;;;;;;4.30;3.30;;;;;;;;;;6181522;23;20415;-93
2023/10/24 01:13:02;;;;;;;5.80;4.40;;;;;;;;;;6185348;23;20375;-94
2023/10/24 01:15:28;;;;;;;5.03;4.37;;;;;;;;;;6181526;23;20372;-93
2023/10/24 01:20:39;;;;;;;6.37;4.40;;;;;;;;;;6259923;22;20430;-93
2023/10/24 01:23:09;;;;;;;7.33;4.07;;;;;;;;;;6214553;23;20901;-92
2023/10/24 01:25:41;;;;;;;4.17;3.77;;;;;;;;;;6240501;23;20362;-93
2023/10/24 01:28:08;;;;;;;4.40;3.67;;;;;;;;;;6211283;23;20389;-92
2023/10/24 01:30:35;;;;;;;4.00;3.60;;;;;;;;;;6212999;23;20418;-94
2023/10/24 01:33:02;;;;;;;5.30;4.43;;;;;;;;;;6212368;23;20467;-95
2023/10/24 01:35:28;;;;;;;5.27;3.80;;;;;;;;;;6213207;23;20494;-94
2023/10/24 01:37:56;;;;;;;3.70;3.40;;;;;;;;;;6209739;23;20728;-95
2023/10/24 01:40:22;;;;;;;3.70;3.13;;;;;;;;;;6212399;23;20535;-93
2023/10/24 01:42:48;;;;;;;3.33;3.03;;;;;;;;;;6237733;23;20404;-95
2023/10/24 01:45:19;;;;;;;4.10;3.70;;;;;;;;;;6213792;23;20398;-94
2023/10/24 01:47:45;;;;;;;4.30;3.90;;;;;;;;;;6211365;22;20442;-95
2023/10/24 01:50:12;;;;;;;4.03;3.27;;;;;;;;;;6215860;23;20425;-96
2023/10/24 01:52:38;;;;;;;3.57;3.23;;;;;;;;;;6235069;23;20422;-93
2023/10/24 01:55:05;;;;;;;4.37;3.20;;;;;;;;;;6212871;23;20390;-94
2023/10/24 01:57:31;;;;;;;5.03;3.70;;;;;;;;;;6210252;23;20798;-93
2023/10/24 01:59:57;;;;;;;10.30;3.30;;;;;;;;;;6146573;23;20376;-94
2023/10/24 02:02:23;;;;;;;8.97;3.30;;;;;;;;;;6120633;23;20991;-94
2023/10/24 02:04:49;;;;;;;4.60;4.20;;;;;;;;;;6123237;23;20560;-89
2023/10/24 02:07:15;;;;;;;6.13;3.57;;;;;;;;;;6112207;23;20384;-89
2023/10/24 02:09:42;;;;;;;3.40;2.80;;;;;;;;;;6113544;23;20377;-90
2023/10/24 02:12:08;;;;;;;3.30;3.00;;;;;;;;;;6112704;23;20476;-91
2023/10/24 02:14:35;;;;;;;3.10;2.90;;;;;;;;;;6113859;23;20453;-90
2023/10/24 02:17:01;;;;;;;3.00;2.70;;;;;;;;;;6111633;23;20380;-89
2023/10/24 02:19:28;;;;;;;6.17;2.57;;;;;;;;;;6114978;23;20392;-90
2023/10/24 02:21:54;;;;;;;2.60;2.40;;;;;;;;;;6079010;23;20383;-90
2023/10/24 02:24:20;;;;;;;4.10;3.07;;;;;;;;;;6078244;23;20867;-89
2023/10/24 02:26:46;;;;;;;4.00;2.90;;;;;;;;;;6080805;23;20429;-90
2023/10/24 02:29:12;;;;;;;4.43;3.20;;;;;;;;;;6076819;23;20631;-90
2023/10/24 02:31:38;;;;;;;3.90;2.90;;;;;;;;;;6126189;23;20906;-92
2023/10/24 02:34:04;;;;;;;4.90;3.43;;;;;;;;;;6082412;23;20389;-90
2023/10/24 02:36:30;;;;;;;5.03;3.53;;;;;;;;;;6085117;23;20393;-90
2023/10/24 02:38:56;;;;;;;5.40;3.40;;;;;;;;;;6082592;23;20413;-90
2023/10/24 02:41:22;;;;;;;2.90;2.60;;;;;;;;;;6084603;23;20386;-90
2023/10/24 02:43:48;;;;;;;5.40;3.17;;;;;;;;;;6081959;23;20883;-90
2023/10/24 02:46:14;;;;;;;4.47;3.57;;;;;;;;;;6084400;23;20376;-90
2023/10/24 02:48:42;;;;;;;5.23;4.57;;;;;;;;;;6081804;23;20390;-90
2023/10/24 02:51:08;;;;;;;5.07;3.43;;;;;;;;;;6088953;23;20449;-89
2023/10/24 02:53:34;;;;;;;4.73;2.80;;;;;;;;;;6082785;23;20385;-90
2023/10/24 02:56:03;;;;;;;3.33;2.87;;;;;;;;;;6084087;23;20394;-90
2023/10/24 02:58:30;;;;;;;7.03;3.37;;;;;;;;;;6125538;23;20457;-91
2023/10/24 03:00:56;;;;;;;5.57;4.00;;;;;;;;;;6173552;23;20363;-90
2023/10/24 03:03:22;;;;;;;6.73;3.60;;;;;;;;;;6173796;23;20359;-90
2023/10/24 03:05:48;;;;;;;3.30;3.00;;;;;;;;;;6171696;23;20397;-89
2023/10/24 03:08:14;;;;;;;3.40;3.00;;;;;;;;;;6174376;23;20494;-91
2023/10/24 03:10:40;;;;;;;3.53;2.97;;;;;;;;;;6170564;23;20977;-92
2023/10/24 03:13:06;;;;;;;3.07;2.87;;;;;;;;;;6172671;23;20383;-90
2023/10/24 03:15:33;;;;;;;4.47;3.10;;;;;;;;;;6171400;23;20383;-90
2023/10/24 03:18:00;;;;;;;3.80;3.40;;;;;;;;;;6175341;23;20410;-90
2023/10/24 03:20:29;;;;;;;3.17;2.90;;;;;;;;;;6171831;23;20395;-90
2023/10/24 03:22:55;;;;;;;3.37;3.00;;;;;;;;;;6204209;23;20449;-90
2023/10/24 03:25:21;;;;;;;3.63;2.90;;;;;;;;;;6201159;23;20403;-89
2023/10/24 03:27:47;;;;;;;5.03;2.50;;;;;;;;;;6199988;23;20371;-90
2023/10/24 03:30:13;;;;;;;5.97;2.43;;;;;;;;;;6200373;23;20399;-89
2023/10/24 03:32:40;;;;;;;3.90;2.80;;;;;;;;;;6195598;23;20378;-90
2023/10/24 03:35:06;;;;;;;4.63;3.40;;;;;;;;;;6202909;23;20371;-90
2023/10/24 03:37:32;;;;;;;5.13;2.67;;;;;;;;;;6199912;23;20375;-89
2023/10/24 03:39:58;;;;;;;2.60;2.40;;;;;;;;;;6202348;23;20409;-89
2023/10/24 03:42:25;;;;;;;4.07;3.07;;;;;;;;;;6198030;23;20376;-90
2023/10/24 03:44:51;;;;;;;2.77;1.90;;;;;;;;;;6204362;23;20397;-94
2023/10/24 03:47:17;;;;;;;4.17;2.57;;;;;;;;;;6168195;23;20385;-94
2023/10/24 03:49:44;;;;;;;1.93;1.83;;;;;;;;;;6120064;23;20887;-94
2023/10/24 03:52:10;;;;;;;4.07;2.47;;;;;;;;;;6120086;23;20543;-94
2023/10/24 03:57:12;;;;;;;4.73;2.47;;;;;;;;;;6219941;23;20403;-95
2023/10/24 04:02:14;;;;;;;10.60;2.63;;;;;;;;;;6229371;22;20411;-94
2023/10/24 04:04:40;;;;;;;2.70;2.00;;;;;;;;;;6207603;23;20375;-91
2023/10/24 04:07:06;;;;;;;4.50;2.70;;;;;;;;;;6171750;23;20421;-90
2023/10/24 04:09:32;;;;;;;2.63;2.43;;;;;;;;;;6172845;23;20375;-91
2023/10/24 04:12:00;;;;;;;5.43;2.10;;;;;;;;;;6173615;23;20454;-89
2023/10/24 04:14:27;;;;;;;5.67;2.40;;;;;;;;;;6178074;23;20449;-88
2023/10/24 04:16:54;;;;;;;3.00;2.67;;;;;;;;;;6202710;23;20387;-91
2023/10/24 04:19:23;;;;;;;3.83;3.50;;;;;;;;;;6177865;23;20799;-89
2023/10/24 04:21:49;;;;;;;4.07;2.70;;;;;;;;;;6201907;23;20367;-91
2023/10/24 04:24:18;;;;;;;6.77;2.73;;;;;;;;;;6180601;23;20383;-91
2023/10/24 04:26:44;;;;;;;4.33;2.40;;;;;;;;;;6182350;23;20406;-91
2023/10/24 04:29:10;;;;;;;3.30;2.23;;;;;;;;;;6175122;23;20379;-90
2023/10/24 04:31:36;;;;;;;2.10;1.87;;;;;;;;;;6177708;23;20421;-90
2023/10/24 04:34:04;;;;;;;5.20;2.80;;;;;;;;;;6172594;23;20387;-90
2023/10/24 04:36:30;;;;;;;3.97;2.50;;;;;;;;;;6175380;23;20441;-90
2023/10/24 04:38:56;;;;;;;2.37;2.00;;;;;;;;;;6172216;23;20379;-90
2023/10/24 04:41:22;;;;;;;2.17;1.97;;;;;;;;;;6174662;23;20835;-88
2023/10/24 04:43:49;;;;;;;2.60;2.40;;;;;;;;;;6173139;23;20371;-89
2023/10/24 04:46:15;;;;;;;2.47;2.27;;;;;;;;;;6176699;23;21208;-89
2023/10/24 04:48:42;;;;;;;4.03;2.40;;;;;;;;;;6173916;23;20379;-89
2023/10/24 04:51:11;;;;;;;8.80;2.60;;;;;;;;;;6177486;23;20461;-89
2023/10/24 04:53:37;;;;;;;5.83;2.50;;;;;;;;;;6173972;23;20391;-89
2023/10/24 04:58:39;;;;;;;5.30;2.90;;;;;;;;;;6218132;22;20481;-89
2023/10/24 05:01:05;;;;;;;6.97;2.70;;;;;;;;;;6171811;23;20379;-89
2023/10/24 05:03:33;;;;;;;3.87;2.30;;;;;;;;;;6178288;23;20422;-90
2023/10/24 05:05:59;;;;;;;4.23;2.70;;;;;;;;;;6173483;23;20920;-90
2023/10/24 05:08:25;;;;;;;3.07;2.40;;;;;;;;;;6179533;23;20377;-91
2023/10/24 05:10:54;;;;;;;3.40;2.33;;;;;;;;;;6184067;23;20415;-89
2023/10/24 05:13:20;;;;;;;4.07;2.43;;;;;;;;;;6178942;23;20383;-91
2023/10/24 05:15:46;;;;;;;3.30;3.00;;;;;;;;;;6175361;23;20391;-91
2023/10/24 05:18:13;;;;;;;2.87;2.40;;;;;;;;;;6178213;23;20386;-91
2023/10/24 05:20:39;;;;;;;4.60;2.70;;;;;;;;;;6174398;23;20370;-90
2023/10/24 05:23:06;;;;;;;4.50;2.30;;;;;;;;;;6175839;23;20407;-90
2023/10/24 05:25:32;;;;;;;3.03;2.20;;;;;;;;;;6174322;23;20412;-91
2023/10/24 05:28:02;;;;;;;2.10;1.87;;;;;;;;;;6176479;23;20399;-91
2023/10/24 05:30:28;;;;;;;2.43;1.80;;;;;;;;;;6199147;23;20471;-89
2023/10/24 05:32:55;;;;;;;3.80;2.43;;;;;;;;;;6171808;23;20709;-89
2023/10/24 05:35:21;;;;;;;3.30;2.27;;;;;;;;;;6172729;23;20397;-88
2023/10/24 05:37:47;;;;;;;4.10;2.33;;;;;;;;;;6171749;23;20383;-90
2023/10/24 05:40:13;;;;;;;6.73;3.00;;;;;;;;;;6171724;23;20387;-92
2023/10/24 05:42:41;;;;;;;2.47;2.27;;;;;;;;;;6172247;23;20387;-91
2023/10/24 05:45:08;;;;;;;4.73;2.80;;;;;;;;;;6199788;23;20421;-92
2023/10/24 05:47:36;;;;;;;2.87;2.50;;;;;;;;;;6173714;23;20429;-91
2023/10/24 05:50:02;;;;;;;6.33;3.07;;;;;;;;;;6174213;23;20379;-88
2023/10/24 05:52:28;;;;;;;5.10;3.00;;;;;;;;;;6168979;23;20390;-89
2023/10/24 05:54:54;;;;;;;3.40;2.30;;;;;;;;;;6170394;23;20419;-89
2023/10/24 05:57:23;;;;;;;4.93;2.97;;;;;;;;;;6166958;23;20359;-91
2023/10/24 05:59:51;;;;;;;5.70;3.10;;;;;;;;;;6172805;23;20352;-90
2023/10/24 06:02:17;;;;;;;4.47;2.80;;;;;;;;;;6138578;23;20383;-90
2023/10/24 06:04:43;;;;;;;6.23;3.83;;;;;;;;;;6144116;23;20371;-91
2023/10/24 06:07:09;;;;;;;6.43;2.60;;;;;;;;;;6136917;23;20866;-89
2023/10/24 06:09:35;;;;;;;2.70;2.50;;;;;;;;;;6142432;23;20451;-89
2023/10/24 06:12:01;;;;;;;2.80;2.50;;;;;;;;;;6139452;23;20444;-89
2023/10/24 06:14:27;;;;;;;4.03;2.97;;;;;;;;;;6140383;23;20410;-89
2023/10/24 06:16:53;;;;;;;4.57;2.87;;;;;;;;;;6139258;23;20376;-89
2023/10/24 06:19:22;;;;;;;5.73;3.47;;;;;;;;;;6141603;23;20411;-89
2023/10/24 06:21:48;;;;;;;7.50;2.87;;;;;;;;;;6166114;23;20502;-90
2023/10/24 06:24:14;;;;;;;4.83;3.47;;;;;;;;;;6138040;23;20729;-90
2023/10/24 06:26:40;;;;;;;6.20;2.83;;;;;;;;;;6141165;23;20387;-89
2023/10/24 06:29:07;;;;;;;5.50;3.30;;;;;;;;;;6143777;23;20455;-89
2023/10/24 06:31:33;;;;;;;3.10;2.80;;;;;;;;;;6169436;23;20712;-89
2023/10/24 06:34:01;;;;;;;3.63;2.87;;;;;;;;;;6138710;23;20376;-90
2023/10/24 06:36:27;;;;;;;3.30;3.00;;;;;;;;;;6162684;23;20422;-89
2023/10/24 06:38:54;;;;;;;3.43;3.00;;;;;;;;;;6138621;23;20391;-90
2023/10/24 06:41:20;;;;;;;4.00;2.87;;;;;;;;;;6168912;23;20807;-89
2023/10/24 06:43:46;;;;;;;5.87;3.33;;;;;;;;;;6139628;23;20383;-89
2023/10/24 06:46:12;;;;;;;4.97;3.70;;;;;;;;;;6165211;23;20853;-89
2023/10/24 06:48:38;;;;;;;4.17;2.87;;;;;;;;;;6140411;23;20379;-89
2023/10/24 06:51:04;;;;;;;9.00;4.10;;;;;;;;;;6140193;23;20431;-89
2023/10/24 06:53:31;;;;;;;5.43;3.40;;;;;;;;;;6140697;23;20376;-89
2023/10/24 06:56:01;;;;;;;3.50;3.20;;;;;;;;;;6144025;23;20380;-90
2023/10/24 06:58:27;;;;;;;3.77;3.33;;;;;;;;;;6151219;23;20429;-90
2023/10/24 07:00:54;;;;;;;5.83;3.20;;;;;;;;;;6176031;23;20449;-89
2023/10/24 07:03:20;;;;;;;3.40;2.80;;;;;;;;;;6166606;23;20388;-88
2023/10/24 07:05:52;;;;;;;4.30;2.67;;;;;;;;;;6166833;23;20836;-88
2023/10/24 07:08:20;;;;;;;3.63;2.60;;;;;;;;;;6189573;23;20402;-93
2023/10/24 07:10:46;;;;;;;3.33;3.07;;;;;;;;;;6166627;23;20954;-88
2023/10/24 07:13:15;;;;;;;4.83;3.70;;;;;;;;;;6166269;23;20376;-89
2023/10/24 07:15:41;;;;;;;5.47;3.00;;;;;;;;;;6167101;23;20387;-91
2023/10/24 07:18:07;;;;;;;3.77;3.10;;;;;;;;;;6166175;23;20368;-88
2023/10/24 07:20:36;;;;;;;4.07;3.73;;;;;;;;;;6169498;23;20410;-90
2023/10/24 07:23:03;;;;;;;9.07;4.30;;;;;;;;;;6166744;23;20384;-89
2023/10/24 07:25:29;;;;;;;5.10;3.67;;;;;;;;;;6168703;23;20383;-89
2023/10/24 07:27:57;;;;;;;4.80;3.57;;;;;;;;;;6192063;23;20684;-88
2023/10/24 07:30:23;;;;;;;5.37;3.87;;;;;;;;;;6183961;22;20452;-88
2023/10/24 07:32:49;;;;;;;8.87;4.23;;;;;;;;;;6233565;22;20448;-89
2023/10/24 07:35:17;;;;;;;7.90;4.10;;;;;;;;;;6233620;22;20841;-89
2023/10/24 07:37:43;;;;;;;5.40;4.10;;;;;;;;;;6257266;22;20373;-89
2023/10/24 07:40:09;;;;;;;5.53;3.73;;;;;;;;;;6233561;22;21074;-88
2023/10/24 07:42:35;;;;;;;6.20;4.37;;;;;;;;;;6231525;22;20716;-88
2023/10/24 07:45:01;;;;;;;15.27;4.03;;;;;;;;;;6257367;22;20434;-88
2023/10/24 07:47:27;;;;;;;4.47;3.67;;;;;;;;;;6230825;22;20376;-87
2023/10/24 07:49:55;;;;;;;5.97;3.60;;;;;;;;;;6235054;22;20397;-88
2023/10/24 07:52:21;;;;;;;8.00;4.07;;;;;;;;;;6256760;22;20443;-87
2023/10/24 07:54:47;;;;;;;6.80;4.67;;;;;;;;;;6234317;22;20378;-87
2023/10/24 07:57:13;;;;;;;7.50;4.03;;;;;;;;;;6230208;22;20378;-88
2023/10/24 07:59:39;;;;;;;6.13;4.40;;;;;;;;;;6234308;22;20411;-88
2023/10/24 08:02:05;;;;;;;5.20;3.83;;;;;;;;;;6229521;22;20393;-87
2023/10/24 08:04:39;;;;;;;4.37;3.97;;;;;;;;;;6238458;22;20958;-87
2023/10/24 08:07:05;;;;;;;6.43;3.67;;;;;;;;;;6255567;22;20383;-87
2023/10/24 08:09:31;;;;;;;9.77;3.83;;;;;;;;;;6234668;22;20385;-88
2023/10/24 08:11:57;;;;;;;5.00;4.50;;;;;;;;;;6228733;22;20420;-87
2023/10/24 08:14:23;;;;;;;8.30;3.70;;;;;;;;;;6255520;22;20373;-88
2023/10/24 08:16:49;;;;;;;4.27;3.47;;;;;;;;;;6255561;22;20373;-87
2023/10/24 08:19:15;;;;;;;6.47;3.90;;;;;;;;;;6232811;22;21096;-87
2023/10/24 08:21:41;;;;;;;5.07;3.93;;;;;;;;;;6258261;22;20433;-88
2023/10/24 08:24:07;;;;;;;4.43;3.40;;;;;;;;;;6232069;22;20417;-88
2023/10/24 08:26:33;;;;;;;4.60;4.20;;;;;;;;;;6233240;22;20485;-88
2023/10/24 08:28:59;;;;;;;5.00;3.77;;;;;;;;;;6231901;22;20404;-88
2023/10/24 08:31:25;;;;;;;4.37;3.50;;;;;;;;;;6232678;22;20424;-88
2023/10/24 08:33:52;;;;;;;10.10;4.00;;;;;;;;;;6230522;22;20412;-87
2023/10/24 08:36:18;;;;;;;7.50;4.43;;;;;;;;;;6230576;22;20396;-87
2023/10/24 08:38:46;;;;;;;6.27;4.17;;;;;;;;;;6230506;22;20396;-88
2023/10/24 08:41:12;;;;;;;4.93;4.43;;;;;;;;;;6197528;23;20380;-87
2023/10/24 08:43:38;;;;;;;3.80;3.40;;;;;;;;;;6164271;23;20391;-87
2023/10/24 08:46:04;;;;;;;6.30;4.87;;;;;;;;;;6163673;23;20447;-88
2023/10/24 08:48:30;;;;;;;6.37;4.40;;;;;;;;;;6162175;23;20384;-87
2023/10/24 08:50:57;;;;;;;7.30;5.10;;;;;;;;;;6166111;23;20818;-88
2023/10/24 08:53:23;;;;;;;4.43;3.37;;;;;;;;;;6163884;23;20400;-88
2023/10/24 08:55:53;;;;;;;9.03;4.17;;;;;;;;;;6168357;23;20411;-87
2023/10/24 08:58:20;;;;;;;4.70;4.30;;;;;;;;;;6165129;23;20822;-90
2023/10/24 09:00:49;;;;;;;4.60;4.13;;;;;;;;;;6168976;23;20745;-88
2023/10/24 09:03:18;;;;;;;6.07;3.70;;;;;;;;;;6163691;23;20417;-87
2023/10/24 09:05:47;;;;;;;3.80;3.40;;;;;;;;;;6164983;23;20710;-86
2023/10/24 09:08:16;;;;;;;5.10;4.50;;;;;;;;;;6165000;23;20451;-89
2023/10/24 09:10:42;;;;;;;5.77;4.50;;;;;;;;;;6188026;22;20557;-88
2023/10/24 09:13:08;;;;;;;6.60;3.70;;;;;;;;;;6201424;23;20440;-88
2023/10/24 09:15:36;;;;;;;4.63;4.23;;;;;;;;;;6201164;23;20718;-89
2023/10/24 09:18:03;;;;;;;6.97;5.27;;;;;;;;;;6201440;23;20386;-89
2023/10/24 09:20:35;;;;;;;10.97;4.97;;;;;;;;;;6202291;23;20455;-88
2023/10/24 09:23:07;;;;;;;7.07;5.93;;;;;;;;;;6226167;23;20374;-87
2023/10/24 09:25:33;;;;;;;7.20;5.53;;;;;;;;;;6201443;23;20390;-88
2023/10/24 09:28:18;;;;;;;6.93;4.43;;;;;;;;;;6226704;23;20373;-89
2023/10/24 09:30:44;;;;;;;10.03;4.50;;;;;;;;;;6203947;23;20426;-88
2023/10/24 09:33:11;;;;;;;10.03;4.90;;;;;;;;;;6201659;23;20382;-91
2023/10/24 09:35:37;;;;;;;8.30;5.90;;;;;;;;;;6206301;23;20382;-90
2023/10/24 09:38:05;;;;;;;8.33;6.03;;;;;;;;;;6226487;23;20377;-89
2023/10/24 09:40:35;;;;;;;9.73;7.77;;;;;;;;;;6207607;23;20413;-88
2023/10/24 09:43:02;;;;;;;8.97;7.13;;;;;;;;;;6200705;23;20374;-88
2023/10/24 09:45:28;;;;;;;6.00;5.50;;;;;;;;;;6224832;23;20466;-89
2023/10/24 09:47:54;;;;;;;8.90;5.57;;;;;;;;;;6198331;23;20386;-89
2023/10/24 09:50:20;;;;;;;12.80;7.20;;;;;;;;;;6223916;23;20382;-88
2023/10/24 09:52:47;;;;;;;8.07;6.70;;;;;;;;;;6191356;23;20363;-89
2023/10/24 09:55:14;;;;;;;8.03;6.40;;;;;;;;;;6168224;23;20394;-88
2023/10/24 09:57:40;;;;;;;7.23;6.17;;;;;;;;;;6168555;23;20386;-87
2023/10/24 10:00:11;;;;;;;7.77;6.00;;;;;;;;;;6167219;23;20382;-89
2023/10/24 10:02:37;;;;;;;9.10;6.10;;;;;;;;;;6170478;23;20391;-88
2023/10/24 10:05:03;;;;;;;15.83;6.40;;;;;;;;;;6167082;23;20391;-88
2023/10/24 10:07:29;;;;;;;9.10;6.17;;;;;;;;;;6172185;23;20391;-88
2023/10/24 10:09:56;;;;;;;11.43;6.50;;;;;;;;;;6171473;23;20391;-88
2023/10/24 10:12:22;;;;;;;8.20;6.73;;;;;;;;;;6201278;23;20458;-87
2023/10/24 10:14:56;;;;;;;6.80;6.07;;;;;;;;;;6168795;23;20769;-87
2023/10/24 10:17:26;;;;;;;7.03;6.30;;;;;;;;;;6169298;23;20381;-88
2023/10/24 10:20:25;;;;;;;9.20;5.53;;;;;;;;;;6167697;23;20379;-88
2023/10/24 10:22:50;;;;;;;7.50;6.00;;;;;;;;;;6136490;23;20442;-88
2023/10/24 10:25:35;;;;;;;8.13;6.20;;;;;;;;;;6226208;23;20381;-89
2023/10/24 10:28:14;;;;;;;6.20;5.60;;;;;;;;;;6224996;23;20424;-87
2023/10/24 10:30:43;;;;;;;8.33;5.30;;;;;;;;;;6229861;23;20402;-89
2023/10/24 10:33:13;;;;;;;7.77;6.97;;;;;;;;;;6200628;23;20393;-88
2023/10/24 10:35:49;;;;;;;6.67;6.00;;;;;;;;;;6230397;23;20378;-88
2023/10/24 10:38:25;;;;;;;8.13;6.10;;;;;;;;;;6202230;23;20815;-88
2023/10/24 10:40:51;;;;;;;6.90;5.27;;;;;;;;;;6229821;23;20841;-88
2023/10/24 10:43:30;;;;;;;7.73;5.70;;;;;;;;;;6201842;23;20374;-87
2023/10/24 10:46:16;;;;;;;9.30;6.47;;;;;;;;;;6208534;22;20362;-88
2023/10/24 10:48:42;;;;;;;7.63;5.73;;;;;;;;;;6201144;23;20412;-89
2023/10/24 10:51:08;;;;;;;7.83;5.83;;;;;;;;;;6200216;23;20909;-89
2023/10/24 10:53:52;;;;;;;6.60;5.93;;;;;;;;;;6200993;23;20406;-88
2023/10/24 10:56:19;;;;;;;5.80;5.17;;;;;;;;;;6226103;23;20424;-87
2023/10/24 10:59:19;;;;;;;6.80;5.77;;;;;;;;;;6201151;23;20477;-87
2023/10/24 11:01:45;;;;;;;5.97;4.97;;;;;;;;;;6079741;23;20423;-87
2023/10/24 11:04:14;;;;;;;7.00;5.53;;;;;;;;;;6079234;23;20465;-87
2023/10/24 11:06:56;;;;;;;6.60;5.90;;;;;;;;;;6053803;23;20488;-87
2023/10/24 11:09:22;;;;;;;7.73;6.27;;;;;;;;;;6057464;23;20386;-92
2023/10/24 11:11:48;;;;;;;8.10;6.23;;;;;;;;;;6058054;23;21042;-92
2023/10/24 11:14:19;;;;;;;7.50;5.80;;;;;;;;;;6057104;23;20411;-92
2023/10/24 11:16:48;;;;;;;9.60;6.77;;;;;;;;;;6080628;23;20438;-91
2023/10/24 11:19:27;;;;;;;8.97;6.70;;;;;;;;;;6060038;23;20367;-95
2023/10/24 11:21:54;;;;;;;11.27;7.20;;;;;;;;;;6082795;23;20371;-91
2023/10/24 11:24:21;;;;;;;13.07;7.53;;;;;;;;;;6061058;23;20414;-93
2023/10/24 11:26:48;;;;;;;7.10;6.40;;;;;;;;;;6055936;23;20517;-93
2023/10/24 11:29:14;;;;;;;7.20;6.40;;;;;;;;;;6083287;23;20412;-91
2023/10/24 11:31:42;;;;;;;15.30;7.50;;;;;;;;;;6056278;23;20430;-93
2023/10/24 11:34:10;;;;;;;13.03;6.70;;;;;;;;;;6058991;23;20397;-93
2023/10/24 11:36:39;;;;;;;7.07;6.13;;;;;;;;;;6117937;23;21045;-95
2023/10/24 11:39:05;;;;;;;8.77;6.50;;;;;;;;;;6208246;23;20452;-93
2023/10/24 11:41:31;;;;;;;6.00;5.47;;;;;;;;;;6205321;23;20382;-92
2023/10/24 11:43:57;;;;;;;5.30;4.67;;;;;;;;;;6232243;23;20378;-92
2023/10/24 11:46:23;;;;;;;7.63;6.13;;;;;;;;;;6202575;23;20455;-93
2023/10/24 11:48:49;;;;;;;6.20;5.60;;;;;;;;;;6229641;23;20362;-94
2023/10/24 11:51:15;;;;;;;6.30;5.20;;;;;;;;;;6207268;23;20710;-92
2023/10/24 11:53:41;;;;;;;7.10;4.57;;;;;;;;;;6213858;23;20478;-94
2023/10/24 11:56:08;;;;;;;4.30;3.90;;;;;;;;;;6204624;23;20394;-92
2023/10/24 11:58:34;;;;;;;5.50;4.33;;;;;;;;;;6234243;23;20366;-93
2023/10/24 12:01:00;;;;;;;4.90;4.10;;;;;;;;;;6201149;23;20389;-93
2023/10/24 12:03:47;;;;;;;8.67;4.93;;;;;;;;;;6174575;23;20401;-92
2023/10/24 12:06:13;;;;;;;7.67;5.87;;;;;;;;;;6199098;23;20461;-93
2023/10/24 12:08:43;;;;;;;7.67;5.67;;;;;;;;;;6178394;23;20387;-94
2023/10/24 12:11:09;;;;;;;7.43;5.53;;;;;;;;;;6149154;23;20507;-93
2023/10/24 12:13:35;;;;;;;7.47;5.70;;;;;;;;;;6176321;23;20383;-95
2023/10/24 12:16:02;;;;;;;8.30;6.70;;;;;;;;;;6174802;23;20375;-93
2023/10/24 12:18:31;;;;;;;7.47;5.83;;;;;;;;;;6173568;23;20383;-93
2023/10/24 12:20:58;;;;;;;6.23;5.57;;;;;;;;;;6222099;23;20433;-94
2023/10/24 12:23:26;;;;;;;5.77;4.50;;;;;;;;;;6173828;23;20446;-95
2023/10/24 12:25:52;;;;;;;6.23;4.27;;;;;;;;;;6140597;23;20404;-93
2023/10/24 12:28:19;;;;;;;7.60;4.87;;;;;;;;;;6113933;23;20398;-94
2023/10/24 12:30:46;;;;;;;7.77;4.20;;;;;;;;;;6139548;23;20518;-94
2023/10/24 12:33:12;;;;;;;6.40;3.83;;;;;;;;;;6144002;23;20386;-94
2023/10/24 12:35:38;;;;;;;4.30;3.60;;;;;;;;;;6172032;23;20720;-94
2023/10/24 12:38:06;;;;;;;4.90;2.43;;;;;;;;;;6171427;23;20371;-93
2023/10/24 12:40:32;;;;;;;4.17;3.33;;;;;;;;;;6173320;23;20380;-95
2023/10/24 12:42:58;;;;;;;4.80;3.10;;;;;;;;;;6172139;23;20394;-95
2023/10/24 12:45:24;;;;;;;8.50;3.60;;;;;;;;;;6172967;23;20858;-92
2023/10/24 12:47:51;;;;;;;5.17;3.57;;;;;;;;;;6168690;23;20419;-93
2023/10/24 12:50:17;;;;;;;3.37;2.60;;;;;;;;;;6174186;23;20475;-94
2023/10/24 12:52:43;;;;;;;7.53;3.70;;;;;;;;;;6169441;23;20376;-92
2023/10/24 12:55:10;;;;;;;6.67;2.80;;;;;;;;;;6177664;23;20395;-95
2023/10/24 12:57:36;;;;;;;3.50;3.20;;;;;;;;;;6169175;23;20388;-95
2023/10/24 13:00:02;;;;;;;4.10;3.07;;;;;;;;;;6173025;23;20766;-95
2023/10/24 13:02:29;;;;;;;3.07;2.80;;;;;;;;;;6168901;23;20392;-94
2023/10/24 13:04:55;;;;;;;3.20;2.90;;;;;;;;;;6170785;23;20419;-94
2023/10/24 13:07:21;;;;;;;3.03;2.70;;;;;;;;;;6169707;23;20388;-94
2023/10/24 13:09:47;;;;;;;4.37;3.07;;;;;;;;;;6196272;23;20449;-94
2023/10/24 13:12:13;;;;;;;4.70;2.97;;;;;;;;;;6208330;23;20436;-93
2023/10/24 13:14:41;;;;;;;3.20;2.90;;;;;;;;;;6208211;22;20386;-96
2023/10/24 13:17:07;;;;;;;3.10;2.80;;;;;;;;;;6206833;23;20759;-93
2023/10/24 13:19:33;;;;;;;4.03;3.27;;;;;;;;;;6208842;23;20418;-93
2023/10/24 13:21:59;;;;;;;3.47;3.20;;;;;;;;;;6206663;23;20382;-94
2023/10/24 13:24:33;;;;;;;3.73;2.30;;;;;;;;;;6210563;22;20485;-96
2023/10/24 13:27:00;;;;;;;3.33;3.03;;;;;;;;;;6161769;23;20393;-94
2023/10/24 13:29:26;;;;;;;2.90;2.40;;;;;;;;;;6208148;23;20382;-92
2023/10/24 13:31:55;;;;;;;3.10;2.80;;;;;;;;;;6211372;22;20445;-94
2023/10/24 13:34:21;;;;;;;4.63;2.57;;;;;;;;;;6208903;23;20370;-90
2023/10/24 13:36:47;;;;;;;2.47;2.27;;;;;;;;;;6234312;23;20438;-95
2023/10/24 13:39:16;;;;;;;4.80;3.40;;;;;;;;;;6209010;23;20444;-96
2023/10/24 13:41:42;;;;;;;4.60;2.77;;;;;;;;;;6209588;23;20387;-93
2023/10/24 13:44:08;;;;;;;5.33;3.33;;;;;;;;;;6209951;23;20475;-94
2023/10/24 13:46:35;;;;;;;3.43;2.87;;;;;;;;;;6212325;23;20390;-94
2023/10/24 13:49:01;;;;;;;3.97;2.87;;;;;;;;;;6236920;23;20374;-95
2023/10/24 13:51:27;;;;;;;3.03;2.70;;;;;;;;;;6211605;23;20429;-96
2023/10/24 13:53:53;;;;;;;2.70;2.50;;;;;;;;;;6209885;23;20382;-94
2023/10/24 13:56:22;;;;;;;6.50;3.63;;;;;;;;;;6187506;23;20413;-95
2023/10/24 13:58:48;;;;;;;3.97;2.60;;;;;;;;;;6209771;23;20382;-96
2023/10/24 14:01:14;;;;;;;3.60;3.00;;;;;;;;;;6211478;23;20358;-93
2023/10/24 14:03:40;;;;;;;4.43;3.97;;;;;;;;;;6208488;23;20385;-93
2023/10/24 14:06:06;;;;;;;2.47;2.27;;;;;;;;;;6210890;23;20450;-94
2023/10/24 14:08:34;;;;;;;12.60;3.27;;;;;;;;;;6207975;23;21031;-94
2023/10/24 14:11:00;;;;;;;5.20;2.60;;;;;;;;;;6209879;23;20416;-94
2023/10/24 14:13:27;;;;;;;4.20;2.63;;;;;;;;;;6232903;23;20362;-94
2023/10/24 14:15:53;;;;;;;2.33;2.13;;;;;;;;;;6207715;23;20393;-94
2023/10/24 14:18:19;;;;;;;2.53;2.30;;;;;;;;;;6231040;23;20430;-93
2023/10/24 14:20:45;;;;;;;3.27;2.37;;;;;;;;;;6210626;23;20394;-95
2023/10/24 14:23:13;;;;;;;2.70;2.20;;;;;;;;;;6211763;23;20378;-93
2023/10/24 14:25:40;;;;;;;2.07;1.83;;;;;;;;;;6232313;23;20468;-94
2023/10/24 14:28:07;;;;;;;2.20;2.00;;;;;;;;;;6217126;23;20884;-92
2023/10/24 14:30:33;;;;;;;4.77;3.03;;;;;;;;;;6207126;23;20846;-95
2023/10/24 14:32:59;;;;;;;3.23;2.20;;;;;;;;;;6212666;23;20489;-91
2023/10/24 14:35:30;;;;;;;3.23;2.47;;;;;;;;;;6204795;23;20378;-89
2023/10/24 14:37:57;;;;;;;2.10;1.90;;;;;;;;;;6203464;23;20931;-90
2023/10/24 14:40:23;;;;;;;4.57;3.03;;;;;;;;;;6203303;23;20386;-91
2023/10/24 14:42:49;;;;;;;3.10;2.67;;;;;;;;;;6205197;23;20389;-90
2023/10/24 14:45:15;;;;;;;3.53;2.30;;;;;;;;;;6205595;23;20420;-95
2023/10/24 14:47:42;;;;;;;2.77;2.40;;;;;;;;;;6229873;23;20707;-93
2023/10/24 14:50:09;;;;;;;4.10;3.17;;;;;;;;;;6204935;23;20450;-95
2023/10/24 14:52:35;;;;;;;4.00;3.60;;;;;;;;;;6208956;23;20464;-94
2023/10/24 14:55:01;;;;;;;4.90;3.10;;;;;;;;;;6205614;23;20473;-93